sensor_id;sensor_type;location;lat;lon;timestamp;temperature;humidity
56076;DHT22;41951;49.022;12.066;2023-07-31T00:00:27;16.10;99.90
56076;DHT22;41951;49.022;12.066;2023-07-31T00:02:53;16.10;99.90
56076;DHT22;41951;49.022;12.066;2023-07-31T00:05:19;16.10;99.90
56076;DHT22;41951;49.022;12.066;2023-07-31T00:07:45;16.00;99.90
56076;DHT22;41951;49.022;12.066;2023-07-31T00:10:10;16.00;99.90
56076;DHT22;41951;49.022;12.066;2023-07-31T00:12:37;16.00;99.90
56076;DHT22;41951;49.022;12.066;2023-07-31T00:15:03;16.00;99.90
56076;DHT22;41951;49.022;12.066;2023-07-31T00:17:29;16.00;99.90
56076;DHT22;41951;49.022;12.066;2023-07-31T00:19:54;16.00;99.90
56076;DHT22;41951;49.022;12.066;2023-07-31T00:22:20;15.80;99.90
56076;DHT22;41951;49.022;12.066;2023-07-31T00:24:45;15.90;99.90
56076;DHT22;41951;49.022;12.066;2023-07-31T00:27:11;15.90;99.90
56076;DHT22;41951;49.022;12.066;2023-07-31T00:29:36;15.90;99.90
56076;DHT22;41951;49.022;12.066;2023-07-31T00:32:02;15.90;99.90
56076;DHT22;41951;49.022;12.066;2023-07-31T00:34:28;16.00;99.90
56076;DHT22;41951;49.022;12.066;2023-07-31T00:36:53;15.90;99.90
56076;DHT22;41951;49.022;12.066;2023-07-31T00:39:19;16.00;99.90
56076;DHT22;41951;49.022;12.066;2023-07-31T00:41:44;15.90;99.90
56076;DHT22;41951;49.022;12.066;2023-07-31T00:44:10;15.90;99.90
56076;DHT22;41951;49.022;12.066;2023-07-31T00:46:35;15.90;99.90
56076;DHT22;41951;49.022;12.066;2023-07-31T00:49:01;15.80;99.90
56076;DHT22;41951;49.022;12.066;2023-07-31T00:51:27;15.70;99.90
56076;DHT22;41951;49.022;12.066;2023-07-31T00:53:53;15.70;99.90
56076;DHT22;41951;49.022;12.066;2023-07-31T00:56:19;15.70;99.90
56076;DHT22;41951;49.022;12.066;2023-07-31T00:58:45;15.80;99.90
56076;DHT22;41951;49.022;12.066;2023-07-31T01:01:10;15.80;99.90
56076;DHT22;41951;49.022;12.066;2023-07-31T01:03:36;15.70;99.90
56076;DHT22;41951;49.022;12.066;2023-07-31T01:06:15;15.70;99.90
56076;DHT22;41951;49.022;12.066;2023-07-31T01:11:43;15.50;99.90
56076;DHT22;41951;49.022;12.066;2023-07-31T01:14:09;15.40;99.90
56076;DHT22;41951;49.022;12.066;2023-07-31T01:16:35;15.20;99.90
56076;DHT22;41951;49.022;12.066;2023-07-31T01:19:01;15.10;99.90
56076;DHT22;41951;49.022;12.066;2023-07-31T01:24:17;15.00;99.90
56076;DHT22;41951;49.022;12.066;2023-07-31T01:26:49;14.90;99.90
56076;DHT22;41951;49.022;12.066;2023-07-31T01:29:38;14.90;99.90
56076;DHT22;41951;49.022;12.066;2023-07-31T01:32:09;15.10;99.90
56076;DHT22;41951;49.022;12.066;2023-07-31T01:34:36;15.20;99.90
56076;DHT22;41951;49.022;12.066;2023-07-31T01:37:02;15.30;99.90
56076;DHT22;41951;49.022;12.066;2023-07-31T01:39:28;15.40;99.90
56076;DHT22;41951;49.022;12.066;2023-07-31T01:41:54;15.40;99.90
56076;DHT22;41951;49.022;12.066;2023-07-31T01:44:19;15.40;99.90
56076;DHT22;41951;49.022;12.066;2023-07-31T01:46:45;15.30;99.90
56076;DHT22;41951;49.022;12.066;2023-07-31T01:49:10;15.30;99.90
56076;DHT22;41951;49.022;12.066;2023-07-31T01:51:36;15.30;99.90
56076;DHT22;41951;49.022;12.066;2023-07-31T01:54:02;15.20;99.90
56076;DHT22;41951;49.022;12.066;2023-07-31T01:56:28;15.20;99.90
56076;DHT22;41951;49.022;12.066;2023-07-31T01:58:53;15.10;99.90
56076;DHT22;41951;49.022;12.066;2023-07-31T02:01:19;15.00;99.90
56076;DHT22;41951;49.022;12.066;2023-07-31T02:03:45;14.90;99.90
56076;DHT22;41951;49.022;12.066;2023-07-31T02:06:10;14.90;99.90
56076;DHT22;41951;49.022;12.066;2023-07-31T02:08:36;15.00;99.90
56076;DHT22;41951;49.022;12.066;2023-07-31T02:11:01;15.10;99.90
56076;DHT22;41951;49.022;12.066;2023-07-31T02:13:27;15.00;99.90
56076;DHT22;41951;49.022;12.066;2023-07-31T02:15:53;15.00;99.90
56076;DHT22;41951;49.022;12.066;2023-07-31T02:18:19;15.00;99.90
56076;DHT22;41951;49.022;12.066;2023-07-31T02:20:51;15.00;99.90
56076;DHT22;41951;49.022;12.066;2023-07-31T02:23:18;15.00;99.90
56076;DHT22;41951;49.022;12.066;2023-07-31T02:25:44;15.10;99.90
56076;DHT22;41951;49.022;12.066;2023-07-31T02:28:10;15.10;99.90
56076;DHT22;41951;49.022;12.066;2023-07-31T02:30:35;15.10;99.90
56076;DHT22;41951;49.022;12.066;2023-07-31T02:33:01;15.00;99.90
56076;DHT22;41951;49.022;12.066;2023-07-31T02:35:27;15.00;99.90
56076;DHT22;41951;49.022;12.066;2023-07-31T02:37:52;15.00;99.90
56076;DHT22;41951;49.022;12.066;2023-07-31T02:40:18;14.90;99.90
56076;DHT22;41951;49.022;12.066;2023-07-31T02:42:43;14.90;99.90
56076;DHT22;41951;49.022;12.066;2023-07-31T02:45:09;14.90;99.90
56076;DHT22;41951;49.022;12.066;2023-07-31T02:47:34;14.80;99.90
56076;DHT22;41951;49.022;12.066;2023-07-31T02:50:01;14.90;99.90
56076;DHT22;41951;49.022;12.066;2023-07-31T02:52:27;14.80;99.90
56076;DHT22;41951;49.022;12.066;2023-07-31T02:54:52;15.60;99.90
56076;DHT22;41951;49.022;12.066;2023-07-31T02:57:18;14.90;99.90
56076;DHT22;41951;49.022;12.066;2023-07-31T02:59:43;14.90;99.90
56076;DHT22;41951;49.022;12.066;2023-07-31T03:02:09;14.90;99.90
56076;DHT22;41951;49.022;12.066;2023-07-31T03:04:34;14.80;99.90
56076;DHT22;41951;49.022;12.066;2023-07-31T03:07:00;14.90;99.90
56076;DHT22;41951;49.022;12.066;2023-07-31T03:09:25;14.80;99.90
56076;DHT22;41951;49.022;12.066;2023-07-31T03:11:51;14.70;99.90
56076;DHT22;41951;49.022;12.066;2023-07-31T03:14:16;14.60;99.90
56076;DHT22;41951;49.022;12.066;2023-07-31T03:16:42;14.70;99.90
56076;DHT22;41951;49.022;12.066;2023-07-31T03:19:07;14.70;99.90
56076;DHT22;41951;49.022;12.066;2023-07-31T03:21:33;14.70;99.90
56076;DHT22;41951;49.022;12.066;2023-07-31T03:23:58;14.70;99.90
56076;DHT22;41951;49.022;12.066;2023-07-31T03:26:24;14.60;99.90
56076;DHT22;41951;49.022;12.066;2023-07-31T03:28:49;14.50;99.90
56076;DHT22;41951;49.022;12.066;2023-07-31T03:31:15;14.60;99.90
56076;DHT22;41951;49.022;12.066;2023-07-31T03:33:41;14.70;99.90
56076;DHT22;41951;49.022;12.066;2023-07-31T03:36:06;14.60;99.90
56076;DHT22;41951;49.022;12.066;2023-07-31T03:38:33;14.70;99.90
56076;DHT22;41951;49.022;12.066;2023-07-31T03:40:59;14.70;99.90
56076;DHT22;41951;49.022;12.066;2023-07-31T03:43:25;14.80;99.90
56076;DHT22;41951;49.022;12.066;2023-07-31T03:45:50;14.80;99.90
56076;DHT22;41951;49.022;12.066;2023-07-31T03:48:16;14.60;99.90
56076;DHT22;41951;49.022;12.066;2023-07-31T03:50:42;14.60;99.90
56076;DHT22;41951;49.022;12.066;2023-07-31T03:53:07;14.60;99.90
56076;DHT22;41951;49.022;12.066;2023-07-31T03:55:33;14.70;99.90
56076;DHT22;41951;49.022;12.066;2023-07-31T03:57:59;14.70;99.90
56076;DHT22;41951;49.022;12.066;2023-07-31T04:00:26;14.60;99.90
56076;DHT22;41951;49.022;12.066;2023-07-31T04:02:52;14.60;99.90
56076;DHT22;41951;49.022;12.066;2023-07-31T04:05:18;14.60;99.90
56076;DHT22;41951;49.022;12.066;2023-07-31T04:07:43;14.50;99.90
56076;DHT22;41951;49.022;12.066;2023-07-31T04:10:09;14.50;99.90
56076;DHT22;41951;49.022;12.066;2023-07-31T04:12:35;14.50;99.90
56076;DHT22;41951;49.022;12.066;2023-07-31T04:15:00;14.50;99.90
56076;DHT22;41951;49.022;12.066;2023-07-31T04:17:26;14.50;99.90
56076;DHT22;41951;49.022;12.066;2023-07-31T04:19:51;14.50;99.90
56076;DHT22;41951;49.022;12.066;2023-07-31T04:22:17;14.50;99.90
56076;DHT22;41951;49.022;12.066;2023-07-31T04:24:43;14.40;99.90
56076;DHT22;41951;49.022;12.066;2023-07-31T04:27:08;14.50;99.90
56076;DHT22;41951;49.022;12.066;2023-07-31T04:29:34;14.50;99.90
56076;DHT22;41951;49.022;12.066;2023-07-31T04:31:59;14.50;99.90
56076;DHT22;41951;49.022;12.066;2023-07-31T04:34:25;14.40;99.90
56076;DHT22;41951;49.022;12.066;2023-07-31T04:36:50;14.50;99.90
56076;DHT22;41951;49.022;12.066;2023-07-31T04:39:16;14.50;99.90
56076;DHT22;41951;49.022;12.066;2023-07-31T04:41:41;14.60;99.90
56076;DHT22;41951;49.022;12.066;2023-07-31T04:44:07;14.50;99.90
56076;DHT22;41951;49.022;12.066;2023-07-31T04:46:32;14.50;99.90
56076;DHT22;41951;49.022;12.066;2023-07-31T04:48:58;14.70;99.90
56076;DHT22;41951;49.022;12.066;2023-07-31T04:51:23;14.60;99.90
56076;DHT22;41951;49.022;12.066;2023-07-31T04:53:50;14.70;99.90
56076;DHT22;41951;49.022;12.066;2023-07-31T04:56:16;14.70;99.90
56076;DHT22;41951;49.022;12.066;2023-07-31T04:58:41;14.80;99.90
56076;DHT22;41951;49.022;12.066;2023-07-31T05:01:07;14.80;99.90
56076;DHT22;41951;49.022;12.066;2023-07-31T05:03:32;14.90;99.90
56076;DHT22;41951;49.022;12.066;2023-07-31T05:05:58;15.00;99.90
56076;DHT22;41951;49.022;12.066;2023-07-31T05:08:24;15.10;99.90
56076;DHT22;41951;49.022;12.066;2023-07-31T05:10:50;15.10;99.90
56076;DHT22;41951;49.022;12.066;2023-07-31T05:13:15;15.10;99.90
56076;DHT22;41951;49.022;12.066;2023-07-31T05:15:41;15.20;99.90
56076;DHT22;41951;49.022;12.066;2023-07-31T05:18:07;15.20;99.90
56076;DHT22;41951;49.022;12.066;2023-07-31T05:20:32;15.30;99.90
56076;DHT22;41951;49.022;12.066;2023-07-31T05:22:58;15.40;99.90
56076;DHT22;41951;49.022;12.066;2023-07-31T05:25:23;15.50;99.90
56076;DHT22;41951;49.022;12.066;2023-07-31T05:27:49;15.60;99.90
56076;DHT22;41951;49.022;12.066;2023-07-31T05:30:15;15.70;99.90
56076;DHT22;41951;49.022;12.066;2023-07-31T05:32:40;15.80;99.90
56076;DHT22;41951;49.022;12.066;2023-07-31T05:35:06;15.80;99.90
56076;DHT22;41951;49.022;12.066;2023-07-31T05:37:32;15.90;99.90
56076;DHT22;41951;49.022;12.066;2023-07-31T05:39:58;16.00;99.90
56076;DHT22;41951;49.022;12.066;2023-07-31T05:42:23;15.90;99.90
56076;DHT22;41951;49.022;12.066;2023-07-31T05:44:49;15.90;99.90
56076;DHT22;41951;49.022;12.066;2023-07-31T05:47:14;16.10;99.90
56076;DHT22;41951;49.022;12.066;2023-07-31T05:49:40;16.20;99.90
56076;DHT22;41951;49.022;12.066;2023-07-31T05:52:06;16.30;99.90
56076;DHT22;41951;49.022;12.066;2023-07-31T05:54:32;16.30;99.90
56076;DHT22;41951;49.022;12.066;2023-07-31T05:56:58;16.40;99.90
56076;DHT22;41951;49.022;12.066;2023-07-31T05:59:23;16.30;99.90
56076;DHT22;41951;49.022;12.066;2023-07-31T06:01:49;16.40;99.90
56076;DHT22;41951;49.022;12.066;2023-07-31T06:04:14;16.40;99.90
56076;DHT22;41951;49.022;12.066;2023-07-31T06:06:40;16.30;99.90
56076;DHT22;41951;49.022;12.066;2023-07-31T06:09:06;16.30;99.90
56076;DHT22;41951;49.022;12.066;2023-07-31T06:11:32;16.20;99.90
56076;DHT22;41951;49.022;12.066;2023-07-31T06:13:58;16.30;99.90
56076;DHT22;41951;49.022;12.066;2023-07-31T06:16:25;16.20;99.90
56076;DHT22;41951;49.022;12.066;2023-07-31T06:18:50;16.10;99.90
56076;DHT22;41951;49.022;12.066;2023-07-31T06:21:17;16.30;99.90
56076;DHT22;41951;49.022;12.066;2023-07-31T06:23:42;16.40;99.90
56076;DHT22;41951;49.022;12.066;2023-07-31T06:26:08;16.60;99.90
56076;DHT22;41951;49.022;12.066;2023-07-31T06:28:34;16.60;99.90
56076;DHT22;41951;49.022;12.066;2023-07-31T06:30:59;16.80;99.90
56076;DHT22;41951;49.022;12.066;2023-07-31T06:33:26;16.90;99.90
56076;DHT22;41951;49.022;12.066;2023-07-31T06:35:52;17.00;99.90
56076;DHT22;41951;49.022;12.066;2023-07-31T06:38:23;17.10;99.90
56076;DHT22;41951;49.022;12.066;2023-07-31T06:40:49;17.10;99.90
56076;DHT22;41951;49.022;12.066;2023-07-31T06:43:15;17.20;99.90
56076;DHT22;41951;49.022;12.066;2023-07-31T06:45:40;17.30;99.90
56076;DHT22;41951;49.022;12.066;2023-07-31T06:48:06;17.30;99.90
56076;DHT22;41951;49.022;12.066;2023-07-31T06:50:32;17.40;99.90
56076;DHT22;41951;49.022;12.066;2023-07-31T06:52:57;17.50;99.90
56076;DHT22;41951;49.022;12.066;2023-07-31T06:55:23;17.70;99.90
56076;DHT22;41951;49.022;12.066;2023-07-31T06:57:51;17.70;99.90
56076;DHT22;41951;49.022;12.066;2023-07-31T07:00:18;17.90;99.90
56076;DHT22;41951;49.022;12.066;2023-07-31T07:02:45;18.00;99.90
56076;DHT22;41951;49.022;12.066;2023-07-31T07:05:13;18.00;99.90
56076;DHT22;41951;49.022;12.066;2023-07-31T07:07:38;18.10;99.90
56076;DHT22;41951;49.022;12.066;2023-07-31T07:10:04;18.10;99.90
56076;DHT22;41951;49.022;12.066;2023-07-31T07:12:31;18.20;99.90
56076;DHT22;41951;49.022;12.066;2023-07-31T07:14:57;18.30;99.90
56076;DHT22;41951;49.022;12.066;2023-07-31T07:17:23;18.30;99.90
56076;DHT22;41951;49.022;12.066;2023-07-31T07:19:49;18.40;99.90
56076;DHT22;41951;49.022;12.066;2023-07-31T07:22:14;18.40;99.90
56076;DHT22;41951;49.022;12.066;2023-07-31T07:24:40;18.40;99.90
56076;DHT22;41951;49.022;12.066;2023-07-31T07:27:06;18.60;99.90
56076;DHT22;41951;49.022;12.066;2023-07-31T07:29:31;18.60;99.90
56076;DHT22;41951;49.022;12.066;2023-07-31T07:31:57;18.60;99.90
56076;DHT22;41951;49.022;12.066;2023-07-31T07:34:25;18.70;99.90
56076;DHT22;41951;49.022;12.066;2023-07-31T07:36:51;18.70;99.90
56076;DHT22;41951;49.022;12.066;2023-07-31T07:39:16;18.70;99.90
56076;DHT22;41951;49.022;12.066;2023-07-31T07:41:42;18.70;99.90
56076;DHT22;41951;49.022;12.066;2023-07-31T07:44:08;18.70;99.90
56076;DHT22;41951;49.022;12.066;2023-07-31T07:46:33;18.70;99.90
56076;DHT22;41951;49.022;12.066;2023-07-31T07:48:59;18.60;99.90
56076;DHT22;41951;49.022;12.066;2023-07-31T07:51:25;18.50;99.90
56076;DHT22;41951;49.022;12.066;2023-07-31T07:53:50;18.40;99.90
56076;DHT22;41951;49.022;12.066;2023-07-31T07:56:16;18.50;99.90
56076;DHT22;41951;49.022;12.066;2023-07-31T07:58:41;18.80;99.90
56076;DHT22;41951;49.022;12.066;2023-07-31T08:01:07;18.60;99.90
56076;DHT22;41951;49.022;12.066;2023-07-31T08:03:32;18.70;99.90
56076;DHT22;41951;49.022;12.066;2023-07-31T08:06:01;18.80;99.90
56076;DHT22;41951;49.022;12.066;2023-07-31T08:08:28;18.90;99.90
56076;DHT22;41951;49.022;12.066;2023-07-31T08:10:53;19.10;99.90
56076;DHT22;41951;49.022;12.066;2023-07-31T08:13:19;19.10;99.90
56076;DHT22;41951;49.022;12.066;2023-07-31T08:15:44;19.00;99.90
56076;DHT22;41951;49.022;12.066;2023-07-31T08:18:11;19.00;99.90
56076;DHT22;41951;49.022;12.066;2023-07-31T08:20:37;18.90;99.90
56076;DHT22;41951;49.022;12.066;2023-07-31T08:23:03;18.80;99.90
56076;DHT22;41951;49.022;12.066;2023-07-31T08:25:29;18.80;99.90
56076;DHT22;41951;49.022;12.066;2023-07-31T08:27:55;18.60;99.90
56076;DHT22;41951;49.022;12.066;2023-07-31T08:30:21;18.80;99.90
56076;DHT22;41951;49.022;12.066;2023-07-31T08:32:46;18.90;99.90
56076;DHT22;41951;49.022;12.066;2023-07-31T08:35:12;18.80;99.90
56076;DHT22;41951;49.022;12.066;2023-07-31T08:37:38;18.90;99.90
56076;DHT22;41951;49.022;12.066;2023-07-31T08:40:04;18.90;99.90
56076;DHT22;41951;49.022;12.066;2023-07-31T08:42:30;18.90;99.90
56076;DHT22;41951;49.022;12.066;2023-07-31T08:44:56;19.00;99.90
56076;DHT22;41951;49.022;12.066;2023-07-31T08:47:23;19.10;99.90
56076;DHT22;41951;49.022;12.066;2023-07-31T08:49:50;19.10;99.90
56076;DHT22;41951;49.022;12.066;2023-07-31T08:52:17;19.30;99.90
56076;DHT22;41951;49.022;12.066;2023-07-31T08:54:42;19.30;99.90
56076;DHT22;41951;49.022;12.066;2023-07-31T08:57:09;19.30;99.90
56076;DHT22;41951;49.022;12.066;2023-07-31T08:59:35;19.40;99.90
56076;DHT22;41951;49.022;12.066;2023-07-31T09:02:07;19.30;99.90
56076;DHT22;41951;49.022;12.066;2023-07-31T09:04:33;19.40;99.90
56076;DHT22;41951;49.022;12.066;2023-07-31T09:07:03;19.40;99.90
56076;DHT22;41951;49.022;12.066;2023-07-31T09:09:32;19.70;99.90
56076;DHT22;41951;49.022;12.066;2023-07-31T09:11:58;19.80;99.90
56076;DHT22;41951;49.022;12.066;2023-07-31T09:14:27;19.90;99.90
56076;DHT22;41951;49.022;12.066;2023-07-31T09:16:57;20.10;99.90
56076;DHT22;41951;49.022;12.066;2023-07-31T09:19:36;20.30;99.90
56076;DHT22;41951;49.022;12.066;2023-07-31T09:22:04;20.40;99.90
56076;DHT22;41951;49.022;12.066;2023-07-31T09:24:32;20.40;99.90
56076;DHT22;41951;49.022;12.066;2023-07-31T09:27:00;20.30;99.90
56076;DHT22;41951;49.022;12.066;2023-07-31T09:29:26;20.20;99.90
56076;DHT22;41951;49.022;12.066;2023-07-31T09:31:53;20.30;99.90
56076;DHT22;41951;49.022;12.066;2023-07-31T09:34:20;20.20;99.90
56076;DHT22;41951;49.022;12.066;2023-07-31T09:36:49;20.20;99.90
56076;DHT22;41951;49.022;12.066;2023-07-31T09:39:16;20.10;99.90
56076;DHT22;41951;49.022;12.066;2023-07-31T09:41:47;20.10;99.90
56076;DHT22;41951;49.022;12.066;2023-07-31T09:44:18;20.10;99.90
56076;DHT22;41951;49.022;12.066;2023-07-31T09:46:44;20.10;99.90
56076;DHT22;41951;49.022;12.066;2023-07-31T09:49:10;20.20;99.90
56076;DHT22;41951;49.022;12.066;2023-07-31T09:51:41;20.20;99.90
56076;DHT22;41951;49.022;12.066;2023-07-31T09:56:41;20.30;99.90
56076;DHT22;41951;49.022;12.066;2023-07-31T09:59:08;20.40;99.90
56076;DHT22;41951;49.022;12.066;2023-07-31T10:01:35;20.40;99.90
56076;DHT22;41951;49.022;12.066;2023-07-31T10:04:01;20.50;99.90
56076;DHT22;41951;49.022;12.066;2023-07-31T10:06:28;20.60;99.90
56076;DHT22;41951;49.022;12.066;2023-07-31T10:08:54;20.60;99.90
56076;DHT22;41951;49.022;12.066;2023-07-31T10:11:21;20.60;99.90
56076;DHT22;41951;49.022;12.066;2023-07-31T10:13:48;20.70;99.90
56076;DHT22;41951;49.022;12.066;2023-07-31T10:16:14;20.80;99.90
56076;DHT22;41951;49.022;12.066;2023-07-31T10:18:42;20.80;99.90
56076;DHT22;41951;49.022;12.066;2023-07-31T10:21:09;20.70;99.90
56076;DHT22;41951;49.022;12.066;2023-07-31T10:23:35;20.80;99.90
56076;DHT22;41951;49.022;12.066;2023-07-31T10:26:01;20.90;99.90
56076;DHT22;41951;49.022;12.066;2023-07-31T10:28:29;20.80;99.90
56076;DHT22;41951;49.022;12.066;2023-07-31T10:30:55;20.90;99.90
56076;DHT22;41951;49.022;12.066;2023-07-31T10:33:21;20.80;99.90
56076;DHT22;41951;49.022;12.066;2023-07-31T10:35:47;21.00;99.90
56076;DHT22;41951;49.022;12.066;2023-07-31T10:38:14;21.30;99.90
56076;DHT22;41951;49.022;12.066;2023-07-31T10:40:40;21.10;99.90
56076;DHT22;41951;49.022;12.066;2023-07-31T10:43:06;21.20;99.90
56076;DHT22;41951;49.022;12.066;2023-07-31T10:45:36;21.40;99.90
56076;DHT22;41951;49.022;12.066;2023-07-31T10:48:06;21.30;99.90
56076;DHT22;41951;49.022;12.066;2023-07-31T10:50:36;21.30;99.90
56076;DHT22;41951;49.022;12.066;2023-07-31T10:53:03;21.40;99.90
56076;DHT22;41951;49.022;12.066;2023-07-31T10:58:10;21.40;99.90
56076;DHT22;41951;49.022;12.066;2023-07-31T11:00:38;21.30;99.90
56076;DHT22;41951;49.022;12.066;2023-07-31T11:03:09;21.40;99.90
56076;DHT22;41951;49.022;12.066;2023-07-31T11:08:26;21.70;99.90
56076;DHT22;41951;49.022;12.066;2023-07-31T11:13:29;21.80;99.90
56076;DHT22;41951;49.022;12.066;2023-07-31T11:15:55;21.80;99.90
56076;DHT22;41951;49.022;12.066;2023-07-31T11:18:21;21.90;99.90
56076;DHT22;41951;49.022;12.066;2023-07-31T11:20:46;22.00;99.90
56076;DHT22;41951;49.022;12.066;2023-07-31T11:23:12;22.10;99.90
56076;DHT22;41951;49.022;12.066;2023-07-31T11:25:39;22.20;99.90
56076;DHT22;41951;49.022;12.066;2023-07-31T11:28:14;22.20;99.90
56076;DHT22;41951;49.022;12.066;2023-07-31T11:30:42;22.30;99.90
56076;DHT22;41951;49.022;12.066;2023-07-31T11:33:09;22.20;99.90
56076;DHT22;41951;49.022;12.066;2023-07-31T11:35:41;22.20;99.90
56076;DHT22;41951;49.022;12.066;2023-07-31T11:38:07;22.20;99.90
56076;DHT22;41951;49.022;12.066;2023-07-31T11:40:43;22.30;99.90
56076;DHT22;41951;49.022;12.066;2023-07-31T11:43:10;22.30;99.90
56076;DHT22;41951;49.022;12.066;2023-07-31T11:45:39;22.50;99.90
56076;DHT22;41951;49.022;12.066;2023-07-31T11:48:05;22.70;99.90
56076;DHT22;41951;49.022;12.066;2023-07-31T11:50:33;22.70;99.90
56076;DHT22;41951;49.022;12.066;2023-07-31T11:53:03;22.70;99.90
56076;DHT22;41951;49.022;12.066;2023-07-31T11:55:30;22.70;99.90
56076;DHT22;41951;49.022;12.066;2023-07-31T11:57:57;22.80;99.90
56076;DHT22;41951;49.022;12.066;2023-07-31T12:00:23;22.80;99.90
56076;DHT22;41951;49.022;12.066;2023-07-31T12:02:50;22.90;99.90
56076;DHT22;41951;49.022;12.066;2023-07-31T12:05:16;23.00;99.90
56076;DHT22;41951;49.022;12.066;2023-07-31T12:07:46;23.10;99.90
56076;DHT22;41951;49.022;12.066;2023-07-31T12:10:27;23.20;99.90
56076;DHT22;41951;49.022;12.066;2023-07-31T12:12:58;23.40;99.90
56076;DHT22;41951;49.022;12.066;2023-07-31T12:15:32;23.50;99.60
56076;DHT22;41951;49.022;12.066;2023-07-31T12:17:58;23.50;99.00
56076;DHT22;41951;49.022;12.066;2023-07-31T12:20:24;23.50;99.00
56076;DHT22;41951;49.022;12.066;2023-07-31T12:22:49;23.60;99.60
56076;DHT22;41951;49.022;12.066;2023-07-31T12:25:18;23.70;99.10
56076;DHT22;41951;49.022;12.066;2023-07-31T12:27:46;24.00;99.10
56076;DHT22;41951;49.022;12.066;2023-07-31T12:30:34;24.00;98.30
56076;DHT22;41951;49.022;12.066;2023-07-31T12:33:15;24.00;98.00
56076;DHT22;41951;49.022;12.066;2023-07-31T12:35:45;24.00;97.70
56076;DHT22;41951;49.022;12.066;2023-07-31T12:38:11;23.90;98.20
56076;DHT22;41951;49.022;12.066;2023-07-31T12:40:38;23.90;97.70
56076;DHT22;41951;49.022;12.066;2023-07-31T12:43:05;23.90;98.10
56076;DHT22;41951;49.022;12.066;2023-07-31T12:45:31;23.80;98.00
56076;DHT22;41951;49.022;12.066;2023-07-31T12:48:00;23.70;97.90
56076;DHT22;41951;49.022;12.066;2023-07-31T12:50:26;23.80;98.10
56076;DHT22;41951;49.022;12.066;2023-07-31T12:52:53;23.70;97.90
56076;DHT22;41951;49.022;12.066;2023-07-31T12:55:19;23.50;98.10
56076;DHT22;41951;49.022;12.066;2023-07-31T12:57:44;23.70;98.30
56076;DHT22;41951;49.022;12.066;2023-07-31T13:00:11;23.70;98.10
56076;DHT22;41951;49.022;12.066;2023-07-31T13:02:37;23.90;98.20
56076;DHT22;41951;49.022;12.066;2023-07-31T13:05:02;23.90;97.60
56076;DHT22;41951;49.022;12.066;2023-07-31T13:07:28;23.70;97.40
56076;DHT22;41951;49.022;12.066;2023-07-31T13:09:53;23.50;97.70
56076;DHT22;41951;49.022;12.066;2023-07-31T13:12:19;23.30;97.60
56076;DHT22;41951;49.022;12.066;2023-07-31T13:14:44;23.30;97.70
56076;DHT22;41951;49.022;12.066;2023-07-31T13:17:10;23.30;97.90
56076;DHT22;41951;49.022;12.066;2023-07-31T13:19:36;23.40;97.90
56076;DHT22;41951;49.022;12.066;2023-07-31T13:22:01;23.50;98.00
56076;DHT22;41951;49.022;12.066;2023-07-31T13:24:27;23.70;97.80
56076;DHT22;41951;49.022;12.066;2023-07-31T13:26:52;23.80;97.20
56076;DHT22;41951;49.022;12.066;2023-07-31T13:29:18;24.10;96.90
56076;DHT22;41951;49.022;12.066;2023-07-31T13:31:43;24.20;97.00
56076;DHT22;41951;49.022;12.066;2023-07-31T13:34:09;24.60;96.90
56076;DHT22;41951;49.022;12.066;2023-07-31T13:36:34;24.90;96.60
56076;DHT22;41951;49.022;12.066;2023-07-31T13:39:02;25.10;95.90
56076;DHT22;41951;49.022;12.066;2023-07-31T13:41:28;25.30;95.70
56076;DHT22;41951;49.022;12.066;2023-07-31T13:43:54;25.50;95.70
56076;DHT22;41951;49.022;12.066;2023-07-31T13:46:19;25.50;95.50
56076;DHT22;41951;49.022;12.066;2023-07-31T13:48:45;25.50;95.40
56076;DHT22;41951;49.022;12.066;2023-07-31T13:51:10;25.30;95.00
56076;DHT22;41951;49.022;12.066;2023-07-31T13:53:36;25.10;95.00
56076;DHT22;41951;49.022;12.066;2023-07-31T13:56:01;24.70;95.00
56076;DHT22;41951;49.022;12.066;2023-07-31T13:58:27;24.60;95.30
56076;DHT22;41951;49.022;12.066;2023-07-31T14:00:53;24.90;95.70
56076;DHT22;41951;49.022;12.066;2023-07-31T14:03:18;24.70;95.10
56076;DHT22;41951;49.022;12.066;2023-07-31T14:05:44;24.80;95.30
56076;DHT22;41951;49.022;12.066;2023-07-31T14:08:09;25.00;95.30
56076;DHT22;41951;49.022;12.066;2023-07-31T14:10:35;24.90;95.00
56076;DHT22;41951;49.022;12.066;2023-07-31T14:13:00;25.10;95.00
56076;DHT22;41951;49.022;12.066;2023-07-31T14:15:26;25.00;94.50
56076;DHT22;41951;49.022;12.066;2023-07-31T14:17:51;24.90;94.50
56076;DHT22;41951;49.022;12.066;2023-07-31T14:20:17;24.70;94.70
56076;DHT22;41951;49.022;12.066;2023-07-31T14:22:43;24.80;94.80
56076;DHT22;41951;49.022;12.066;2023-07-31T14:25:08;24.70;94.80
56076;DHT22;41951;49.022;12.066;2023-07-31T14:27:35;24.80;94.90
56076;DHT22;41951;49.022;12.066;2023-07-31T14:30:02;24.70;94.60
56076;DHT22;41951;49.022;12.066;2023-07-31T14:32:28;24.80;94.60
56076;DHT22;41951;49.022;12.066;2023-07-31T14:34:53;25.20;94.80
56076;DHT22;41951;49.022;12.066;2023-07-31T14:37:19;25.60;94.60
56076;DHT22;41951;49.022;12.066;2023-07-31T14:39:45;26.00;94.10
56076;DHT22;41951;49.022;12.066;2023-07-31T14:45:33;26.20;93.50
56076;DHT22;41951;49.022;12.066;2023-07-31T14:47:58;26.50;93.40
56076;DHT22;41951;49.022;12.066;2023-07-31T14:50:25;26.90;92.80
56076;DHT22;41951;49.022;12.066;2023-07-31T14:52:51;26.80;92.30
56076;DHT22;41951;49.022;12.066;2023-07-31T14:55:17;26.80;92.30
56076;DHT22;41951;49.022;12.066;2023-07-31T14:57:43;27.10;92.50
56076;DHT22;41951;49.022;12.066;2023-07-31T15:00:09;27.70;92.60
56076;DHT22;41951;49.022;12.066;2023-07-31T15:02:38;28.10;92.00
56076;DHT22;41951;49.022;12.066;2023-07-31T15:05:04;28.00;90.90
56076;DHT22;41951;49.022;12.066;2023-07-31T15:07:30;27.70;90.70
56076;DHT22;41951;49.022;12.066;2023-07-31T15:09:56;27.50;90.30
56076;DHT22;41951;49.022;12.066;2023-07-31T15:12:21;27.20;90.40
56076;DHT22;41951;49.022;12.066;2023-07-31T15:14:49;27.00;90.30
56076;DHT22;41951;49.022;12.066;2023-07-31T15:17:15;26.90;90.40
56076;DHT22;41951;49.022;12.066;2023-07-31T15:19:40;26.80;90.30
56076;DHT22;41951;49.022;12.066;2023-07-31T15:22:06;26.60;90.60
56076;DHT22;41951;49.022;12.066;2023-07-31T15:24:31;26.30;90.70
56076;DHT22;41951;49.022;12.066;2023-07-31T15:26:57;25.80;91.00
56076;DHT22;41951;49.022;12.066;2023-07-31T15:29:23;25.50;91.40